Time;durP1;ratioP1;P1;durP2;ratioP2;P2;SDS_P1;SDS_P2;PMS_P1;PMS_P2;Temp;Humidity;BMP_temperature;BMP_pressure;BME280_temperature;BME280_humidity;BME280_pressure;Samples;Min_cycle;Max_cycle;Signal;HPM_P1;HPM_P2
2023/03/21 00:00:41;;;;;;;;;;;10.10;87.20;;;;;;5116734;28;20055;-69
2023/03/21 00:03:07;;;;;;;;;;;9.90;87.10;;;;;;5134876;28;20384;-70
2023/03/21 00:05:33;;;;;;;;;;;10.00;87.10;;;;;;5135460;28;19916;-70
2023/03/21 00:07:58;;;;;;;;;;;10.10;87.20;;;;;;5135162;28;19922;-69
2023/03/21 00:10:24;;;;;;;;;;;10.00;87.20;;;;;;5135254;28;19915;-70
2023/03/21 00:12:54;;;;;;;;;;;10.00;87.20;;;;;;5134825;28;19915;-70
2023/03/21 00:15:19;;;;;;;;;;;10.00;87.30;;;;;;5135065;28;19919;-70
2023/03/21 00:17:49;;;;;;;;;;;9.90;87.30;;;;;;5134637;28;20436;-69
2023/03/21 00:20:15;;;;;;;;;;;10.00;87.40;;;;;;5134500;28;19927;-69
2023/03/21 00:22:40;;;;;;;;;;;9.90;87.30;;;;;;5134480;28;19912;-69
2023/03/21 00:25:07;;;;;;;;;;;10.00;87.40;;;;;;5134528;28;19908;-69
2023/03/21 00:27:33;;;;;;;;;;;9.90;87.40;;;;;;5134714;28;19930;-70
2023/03/21 00:29:59;;;;;;;;;;;9.90;87.40;;;;;;5134478;28;20318;-70
2023/03/21 00:32:24;;;;;;;;;;;9.90;87.40;;;;;;5134591;28;19915;-69
2023/03/21 00:34:51;;;;;;;;;;;10.00;87.40;;;;;;5134274;28;19949;-70
2023/03/21 00:37:17;;;;;;;;;;;9.90;87.40;;;;;;5134210;28;20027;-70
2023/03/21 00:39:46;;;;;;;;;;;10.00;87.50;;;;;;5134284;28;19915;-69
2023/03/21 00:42:12;;;;;;;;;;;10.00;87.50;;;;;;5134123;28;20412;-70
2023/03/21 00:44:39;;;;;;;;;;;9.90;87.40;;;;;;5134205;28;20000;-69
2023/03/21 00:47:05;;;;;;;;;;;10.00;87.50;;;;;;5134095;28;19923;-70
2023/03/21 00:49:32;;;;;;;;;;;9.90;87.40;;;;;;5134038;28;19919;-70
2023/03/21 00:51:59;;;;;;;;;;;10.00;87.50;;;;;;5134063;28;19922;-69
2023/03/21 00:54:24;;;;;;;;;;;10.00;87.50;;;;;;5133930;28;20325;-70
2023/03/21 00:56:50;;;;;;;;;;;10.00;87.50;;;;;;5114710;28;19919;-69
2023/03/21 00:59:16;;;;;;;;;;;9.90;87.50;;;;;;5134550;28;20031;-69
2023/03/21 01:01:41;;;;;;;;;;;10.00;87.60;;;;;;5133697;28;19976;-70
2023/03/21 01:04:12;;;;;;;;;;;9.90;87.50;;;;;;5133429;28;19960;-70
2023/03/21 01:06:38;;;;;;;;;;;10.00;87.60;;;;;;5133497;28;19998;-70
2023/03/21 01:09:04;;;;;;;;;;;9.90;87.50;;;;;;5132701;27;20336;-70
2023/03/21 01:11:29;;;;;;;;;;;10.00;87.50;;;;;;5133624;28;19922;-70
2023/03/21 01:14:00;;;;;;;;;;;9.90;87.50;;;;;;5133347;28;20283;-70
2023/03/21 01:16:26;;;;;;;;;;;10.00;87.50;;;;;;5133256;28;19925;-70
2023/03/21 01:18:51;;;;;;;;;;;10.00;87.50;;;;;;5133401;28;20009;-70
2023/03/21 01:21:17;;;;;;;;;;;10.00;87.60;;;;;;5133304;28;19915;-69
2023/03/21 01:23:43;;;;;;;;;;;9.90;87.50;;;;;;5133481;28;20283;-70
2023/03/21 01:26:09;;;;;;;;;;;9.90;87.60;;;;;;5133435;28;19915;-69
2023/03/21 01:28:35;;;;;;;;;;;9.90;87.60;;;;;;5113543;28;19916;-70
2023/03/21 01:31:01;;;;;;;;;;;9.90;87.70;;;;;;5133522;28;19916;-70
2023/03/21 01:33:27;;;;;;;;;;;9.90;87.70;;;;;;5114126;28;20333;-69
2023/03/21 01:35:52;;;;;;;;;;;9.90;87.80;;;;;;5133035;28;20022;-70
2023/03/21 01:38:18;;;;;;;;;;;9.80;87.70;;;;;;5133124;28;19915;-69
2023/03/21 01:40:45;;;;;;;;;;;9.80;87.80;;;;;;5132936;28;20285;-70
2023/03/21 01:43:18;;;;;;;;;;;9.80;87.90;;;;;;5132970;28;19958;-69
2023/03/21 01:46:02;;;;;;;;;;;9.80;87.90;;;;;;5133524;28;19912;-69
2023/03/21 01:48:28;;;;;;;;;;;9.90;88.00;;;;;;5133036;28;19919;-69
2023/03/21 01:50:54;;;;;;;;;;;9.80;88.00;;;;;;5132971;28;20379;-69
2023/03/21 01:53:21;;;;;;;;;;;9.80;88.00;;;;;;5132806;28;20269;-70
2023/03/21 01:55:48;;;;;;;;;;;9.80;88.10;;;;;;5132769;28;19919;-70
2023/03/21 01:58:17;;;;;;;;;;;9.70;88.10;;;;;;5132777;28;19915;-70
2023/03/21 02:00:44;;;;;;;;;;;9.80;88.10;;;;;;5132864;28;19960;-69
2023/03/21 02:03:10;;;;;;;;;;;9.80;88.10;;;;;;5132899;28;19915;-70
2023/03/21 02:05:40;;;;;;;;;;;9.80;88.20;;;;;;5114025;28;19967;-70
2023/03/21 02:08:06;;;;;;;;;;;9.80;88.10;;;;;;5132676;28;19922;-70
2023/03/21 02:10:32;;;;;;;;;;;9.80;88.10;;;;;;5113155;28;19916;-69
2023/03/21 02:13:06;;;;;;;;;;;9.70;88.10;;;;;;5132570;28;19998;-69
2023/03/21 02:15:33;;;;;;;;;;;9.80;88.20;;;;;;5132775;28;19968;-69
2023/03/21 02:18:05;;;;;;;;;;;9.80;88.20;;;;;;5132546;28;19915;-70
2023/03/21 02:20:49;;;;;;;;;;;9.70;88.10;;;;;;5135403;27;20010;-70
2023/03/21 02:23:35;;;;;;;;;;;9.80;88.20;;;;;;5118508;28;19916;-69
2023/03/21 02:26:15;;;;;;;;;;;9.80;88.20;;;;;;5116472;28;20010;-70
2023/03/21 02:28:55;;;;;;;;;;;9.80;88.20;;;;;;5135971;28;19916;-69
2023/03/21 02:31:31;;;;;;;;;;;9.80;88.20;;;;;;5136016;28;20253;-69
2023/03/21 02:34:12;;;;;;;;;;;9.80;88.20;;;;;;5117234;28;20364;-69
2023/03/21 02:36:49;;;;;;;;;;;9.80;88.20;;;;;;5133869;28;20039;-69
2023/03/21 02:39:22;;;;;;;;;;;9.70;88.20;;;;;;5117421;28;19939;-69
2023/03/21 02:41:53;;;;;;;;;;;9.70;88.20;;;;;;5135895;28;19917;-69
2023/03/21 02:44:22;;;;;;;;;;;9.80;88.20;;;;;;5135586;28;19915;-69
2023/03/21 02:46:54;;;;;;;;;;;9.80;88.30;;;;;;5135655;28;20407;-69
2023/03/21 02:49:25;;;;;;;;;;;9.70;88.20;;;;;;5135621;28;20011;-69
2023/03/21 02:51:50;;;;;;;;;;;9.70;88.30;;;;;;5135513;28;19915;-69
2023/03/21 02:54:18;;;;;;;;;;;9.80;88.30;;;;;;5116709;28;19984;-69
2023/03/21 02:56:45;;;;;;;;;;;9.80;88.30;;;;;;5135425;28;20288;-69
2023/03/21 02:59:11;;;;;;;;;;;9.80;88.30;;;;;;5136166;28;19987;-69
2023/03/21 03:01:37;;;;;;;;;;;9.70;88.30;;;;;;5135893;28;19915;-69
2023/03/21 03:04:02;;;;;;;;;;;9.70;88.30;;;;;;5135389;28;20387;-69
2023/03/21 03:06:35;;;;;;;;;;;9.70;88.30;;;;;;5135382;28;19922;-69
2023/03/21 03:09:17;;;;;;;;;;;9.80;88.40;;;;;;5135351;28;19915;-69
2023/03/21 03:11:45;;;;;;;;;;;9.80;88.40;;;;;;5132825;28;19918;-69
2023/03/21 03:14:25;;;;;;;;;;;9.80;88.40;;;;;;5135369;28;20371;-69
2023/03/21 03:16:57;;;;;;;;;;;9.80;88.40;;;;;;5132740;28;20014;-69
2023/03/21 03:19:26;;;;;;;;;;;9.80;88.40;;;;;;5135459;28;19964;-69
2023/03/21 03:22:02;;;;;;;;;;;9.70;88.40;;;;;;5116796;28;20018;-69
2023/03/21 03:24:32;;;;;;;;;;;9.80;88.50;;;;;;5135051;28;19922;-69
2023/03/21 03:27:02;;;;;;;;;;;9.80;88.50;;;;;;5135046;28;19962;-70
2023/03/21 03:29:29;;;;;;;;;;;9.70;88.40;;;;;;5135005;28;19915;-69
2023/03/21 03:32:02;;;;;;;;;;;9.80;88.50;;;;;;5134964;27;20314;-70
2023/03/21 03:34:31;;;;;;;;;;;9.80;88.50;;;;;;5134967;28;20006;-69
2023/03/21 03:36:58;;;;;;;;;;;9.70;88.50;;;;;;5134808;28;19950;-69
2023/03/21 03:39:30;;;;;;;;;;;9.70;88.50;;;;;;5134879;28;19915;-69
2023/03/21 03:41:59;;;;;;;;;;;9.70;88.50;;;;;;5134915;28;19965;-68
2023/03/21 03:44:27;;;;;;;;;;;9.70;88.50;;;;;;5134912;28;19994;-69
2023/03/21 03:46:57;;;;;;;;;;;9.80;88.60;;;;;;5115270;28;19916;-69
2023/03/21 03:49:24;;;;;;;;;;;9.80;88.60;;;;;;5116549;28;20346;-69
2023/03/21 03:51:53;;;;;;;;;;;9.70;88.50;;;;;;5131274;28;19950;-69
2023/03/21 03:54:21;;;;;;;;;;;9.70;88.50;;;;;;5114688;28;20010;-69
2023/03/21 03:56:47;;;;;;;;;;;9.70;88.60;;;;;;5134854;28;19919;-69
2023/03/21 03:59:18;;;;;;;;;;;9.70;88.60;;;;;;5134761;28;19923;-69
2023/03/21 04:01:44;;;;;;;;;;;9.70;88.70;;;;;;5134731;28;19915;-69
2023/03/21 04:04:10;;;;;;;;;;;9.70;88.70;;;;;;5134803;28;19916;-69
2023/03/21 04:06:35;;;;;;;;;;;9.70;88.70;;;;;;5134617;28;19922;-69
2023/03/21 04:09:03;;;;;;;;;;;9.70;88.70;;;;;;5134486;28;19924;-69
2023/03/21 04:11:29;;;;;;;;;;;9.70;88.70;;;;;;5134453;28;20287;-69
2023/03/21 04:13:54;;;;;;;;;;;9.70;88.70;;;;;;5134439;28;19998;-69
2023/03/21 04:16:22;;;;;;;;;;;9.70;88.70;;;;;;5134391;28;19970;-69
2023/03/21 04:18:47;;;;;;;;;;;9.80;88.80;;;;;;5134388;28;19961;-69
2023/03/21 04:21:13;;;;;;;;;;;9.70;88.80;;;;;;5114529;28;19916;-69
2023/03/21 04:23:39;;;;;;;;;;;9.70;88.80;;;;;;5134170;28;20017;-69
2023/03/21 04:26:05;;;;;;;;;;;9.70;88.80;;;;;;5134103;28;19920;-69
2023/03/21 04:28:32;;;;;;;;;;;9.70;88.80;;;;;;5134147;28;19923;-69
2023/03/21 04:30:58;;;;;;;;;;;9.70;88.90;;;;;;5134588;28;19911;-69
2023/03/21 04:33:31;;;;;;;;;;;9.70;88.90;;;;;;5134087;28;20325;-70
2023/03/21 04:35:57;;;;;;;;;;;9.70;88.90;;;;;;5133933;28;19919;-69
2023/03/21 04:38:25;;;;;;;;;;;9.70;88.90;;;;;;5133948;28;19946;-69
2023/03/21 04:40:51;;;;;;;;;;;9.80;89.00;;;;;;5115868;28;19927;-68
2023/03/21 04:43:16;;;;;;;;;;;9.60;88.90;;;;;;5132902;27;19916;-69
2023/03/21 04:45:42;;;;;;;;;;;9.70;88.90;;;;;;5134064;28;20052;-69
2023/03/21 04:48:08;;;;;;;;;;;9.70;89.00;;;;;;5133984;28;20041;-69
2023/03/21 04:50:33;;;;;;;;;;;9.70;88.90;;;;;;5133882;28;19965;-69
2023/03/21 04:52:59;;;;;;;;;;;9.70;88.90;;;;;;5133927;28;19915;-69
2023/03/21 04:55:26;;;;;;;;;;;9.60;88.90;;;;;;5133728;28;19915;-69
2023/03/21 04:57:52;;;;;;;;;;;9.70;88.90;;;;;;5133749;28;19922;-69
2023/03/21 05:00:18;;;;;;;;;;;9.70;88.90;;;;;;5113651;28;19916;-69
2023/03/21 05:02:43;;;;;;;;;;;9.70;88.80;;;;;;5133897;28;19959;-69
2023/03/21 05:05:10;;;;;;;;;;;9.80;88.90;;;;;;5133799;28;20374;-69
2023/03/21 05:07:37;;;;;;;;;;;9.70;88.80;;;;;;5114020;28;20270;-69
2023/03/21 05:10:03;;;;;;;;;;;9.70;88.80;;;;;;5134030;28;19915;-69
2023/03/21 05:12:29;;;;;;;;;;;9.70;88.80;;;;;;5114829;28;19923;-70
2023/03/21 05:14:54;;;;;;;;;;;9.60;88.80;;;;;;5133659;28;20285;-69
2023/03/21 05:17:23;;;;;;;;;;;9.70;88.90;;;;;;5133560;28;19923;-69
2023/03/21 05:19:51;;;;;;;;;;;9.60;88.80;;;;;;5133513;28;19964;-69
2023/03/21 05:22:18;;;;;;;;;;;9.60;88.80;;;;;;5133560;28;19915;-69
2023/03/21 05:24:48;;;;;;;;;;;9.60;88.90;;;;;;5133479;28;19915;-69
2023/03/21 05:27:35;;;;;;;;;;;9.60;88.90;;;;;;5133418;28;19915;-69
2023/03/21 05:30:03;;;;;;;;;;;9.60;89.00;;;;;;5133484;28;19926;-69
2023/03/21 05:32:29;;;;;;;;;;;9.60;89.00;;;;;;5115126;28;19915;-69
2023/03/21 05:34:55;;;;;;;;;;;9.50;89.00;;;;;;5133640;28;20270;-69
2023/03/21 05:37:20;;;;;;;;;;;9.50;89.10;;;;;;5133482;28;20273;-69
2023/03/21 05:39:46;;;;;;;;;;;9.50;89.00;;;;;;5133751;28;19922;-69
2023/03/21 05:42:11;;;;;;;;;;;9.60;89.10;;;;;;5133437;28;19939;-70
2023/03/21 05:44:39;;;;;;;;;;;9.50;89.10;;;;;;5133432;28;20414;-70
2023/03/21 05:47:05;;;;;;;;;;;9.50;89.10;;;;;;5133431;28;19915;-70
2023/03/21 05:49:31;;;;;;;;;;;9.50;89.10;;;;;;5115054;28;19915;-69
2023/03/21 05:51:56;;;;;;;;;;;9.50;89.20;;;;;;5133362;28;19972;-68
2023/03/21 05:54:22;;;;;;;;;;;9.50;89.20;;;;;;5134598;27;20427;-71
2023/03/21 05:56:48;;;;;;;;;;;9.50;89.10;;;;;;5136957;28;19962;-68
2023/03/21 05:59:13;;;;;;;;;;;9.60;89.20;;;;;;5136960;28;20360;-68
2023/03/21 06:01:39;;;;;;;;;;;9.50;89.20;;;;;;5136790;28;20321;-69
2023/03/21 06:04:04;;;;;;;;;;;9.50;89.20;;;;;;5136798;28;19916;-68
2023/03/21 06:06:30;;;;;;;;;;;9.50;89.30;;;;;;5136713;28;19915;-69
2023/03/21 06:08:55;;;;;;;;;;;9.40;89.20;;;;;;5136586;28;20268;-68
2023/03/21 06:11:24;;;;;;;;;;;9.60;89.30;;;;;;5117205;28;19916;-68
2023/03/21 06:13:50;;;;;;;;;;;9.50;89.20;;;;;;5118394;28;20295;-68
2023/03/21 06:16:15;;;;;;;;;;;9.50;89.20;;;;;;5136637;28;19919;-68
2023/03/21 06:18:41;;;;;;;;;;;9.50;89.10;;;;;;5136482;28;19923;-68
2023/03/21 06:21:06;;;;;;;;;;;9.60;89.20;;;;;;5136638;28;19923;-69
2023/03/21 06:23:32;;;;;;;;;;;9.60;89.20;;;;;;5136558;28;19919;-69
2023/03/21 06:25:57;;;;;;;;;;;9.60;89.10;;;;;;5136610;28;19923;-69
2023/03/21 06:28:23;;;;;;;;;;;9.60;89.10;;;;;;5136474;28;20356;-69
2023/03/21 06:30:48;;;;;;;;;;;9.60;89.10;;;;;;5136488;28;19919;-69
2023/03/21 06:33:14;;;;;;;;;;;9.60;89.00;;;;;;5136260;28;19923;-69
2023/03/21 06:35:39;;;;;;;;;;;9.70;89.10;;;;;;5136237;28;19923;-69
2023/03/21 06:38:05;;;;;;;;;;;9.60;89.00;;;;;;5136271;28;19915;-69
2023/03/21 06:40:31;;;;;;;;;;;9.60;89.00;;;;;;5136601;28;19915;-69
2023/03/21 06:42:56;;;;;;;;;;;9.60;88.90;;;;;;5136221;28;19922;-69
2023/03/21 06:45:24;;;;;;;;;;;9.60;88.90;;;;;;5136194;28;19920;-69
2023/03/21 06:47:50;;;;;;;;;;;9.80;88.90;;;;;;5136065;28;19916;-69
2023/03/21 06:50:15;;;;;;;;;;;9.70;88.90;;;;;;5135953;28;19915;-69
2023/03/21 06:52:41;;;;;;;;;;;9.70;88.80;;;;;;5117789;28;19923;-69
2023/03/21 06:55:07;;;;;;;;;;;9.70;88.80;;;;;;5135931;28;19976;-69
2023/03/21 06:57:33;;;;;;;;;;;9.80;88.80;;;;;;5136039;28;20023;-70
2023/03/21 06:59:58;;;;;;;;;;;9.90;88.80;;;;;;5136021;28;19915;-69
2023/03/21 07:02:24;;;;;;;;;;;9.90;88.70;;;;;;5136278;28;20381;-69
2023/03/21 07:04:49;;;;;;;;;;;9.80;88.60;;;;;;5135897;28;20006;-69
2023/03/21 07:07:15;;;;;;;;;;;9.80;88.60;;;;;;5134852;27;19922;-69
2023/03/21 07:09:41;;;;;;;;;;;9.80;88.60;;;;;;5135828;28;19955;-69
2023/03/21 07:12:06;;;;;;;;;;;9.90;88.60;;;;;;5135749;28;20383;-69
2023/03/21 07:14:33;;;;;;;;;;;9.90;88.50;;;;;;5135713;28;19964;-67
2023/03/21 07:16:59;;;;;;;;;;;9.90;88.50;;;;;;5135662;28;19926;-68
2023/03/21 07:19:25;;;;;;;;;;;10.00;88.50;;;;;;5135581;28;20284;-69
2023/03/21 07:21:51;;;;;;;;;;;9.90;88.40;;;;;;5135553;28;19916;-68
2023/03/21 07:24:16;;;;;;;;;;;10.00;88.40;;;;;;5135401;28;19922;-69
2023/03/21 07:26:42;;;;;;;;;;;10.10;88.30;;;;;;5135280;28;19915;-69
2023/03/21 07:29:07;;;;;;;;;;;10.10;88.20;;;;;;5116560;28;19923;-69
2023/03/21 07:31:34;;;;;;;;;;;10.20;88.20;;;;;;5135254;28;19915;-68
2023/03/21 07:34:00;;;;;;;;;;;10.20;88.10;;;;;;5135586;28;20077;-69
2023/03/21 07:36:25;;;;;;;;;;;10.20;88.10;;;;;;5135219;28;20014;-69
2023/03/21 07:38:51;;;;;;;;;;;10.20;88.10;;;;;;5117072;28;20335;-69
2023/03/21 07:41:16;;;;;;;;;;;10.30;88.10;;;;;;5116989;28;20337;-69
2023/03/21 07:43:42;;;;;;;;;;;10.20;87.90;;;;;;5117141;28;20014;-69
2023/03/21 07:46:07;;;;;;;;;;;10.40;88.00;;;;;;5135160;28;19998;-69
2023/03/21 07:48:33;;;;;;;;;;;10.30;87.90;;;;;;5115122;28;19922;-69
2023/03/21 07:50:59;;;;;;;;;;;10.20;87.90;;;;;;5116425;28;20275;-69
2023/03/21 07:53:24;;;;;;;;;;;10.20;87.90;;;;;;5135120;28;19964;-69
2023/03/21 07:55:51;;;;;;;;;;;10.30;87.90;;;;;;5135047;28;19972;-68
2023/03/21 07:58:16;;;;;;;;;;;10.20;87.80;;;;;;5116490;28;20326;-69
2023/03/21 08:00:42;;;;;;;;;;;10.30;87.90;;;;;;5134896;28;19912;-69
2023/03/21 08:03:08;;;;;;;;;;;10.20;87.90;;;;;;5134917;28;19915;-69
2023/03/21 08:05:35;;;;;;;;;;;10.30;88.00;;;;;;5134880;28;19964;-69
2023/03/21 08:08:01;;;;;;;;;;;10.30;88.00;;;;;;5134845;28;20010;-69
2023/03/21 08:10:26;;;;;;;;;;;10.30;88.00;;;;;;5134763;28;20395;-69
2023/03/21 08:12:52;;;;;;;;;;;10.20;88.00;;;;;;5134774;28;19995;-69
2023/03/21 08:15:17;;;;;;;;;;;10.30;88.10;;;;;;5134694;28;19915;-69
2023/03/21 08:17:44;;;;;;;;;;;10.30;88.00;;;;;;5134577;27;19923;-69
2023/03/21 08:20:11;;;;;;;;;;;10.30;88.00;;;;;;5134732;28;20376;-69
2023/03/21 08:22:37;;;;;;;;;;;10.40;88.10;;;;;;5134755;28;20391;-69
2023/03/21 08:25:04;;;;;;;;;;;10.30;88.00;;;;;;5134594;28;19923;-69
2023/03/21 08:27:30;;;;;;;;;;;10.40;88.00;;;;;;5134591;28;19922;-69
2023/03/21 08:29:56;;;;;;;;;;;10.40;88.00;;;;;;5114941;28;19955;-69
2023/03/21 08:32:28;;;;;;;;;;;10.50;88.00;;;;;;5134485;28;19994;-69
2023/03/21 08:34:57;;;;;;;;;;;10.40;88.00;;;;;;5134487;28;20360;-69
2023/03/21 08:37:23;;;;;;;;;;;10.40;87.90;;;;;;5134391;28;20439;-69
2023/03/21 08:39:49;;;;;;;;;;;10.40;88.00;;;;;;5134320;28;19915;-69
2023/03/21 08:42:15;;;;;;;;;;;10.40;88.00;;;;;;5134441;28;20375;-69
2023/03/21 08:44:40;;;;;;;;;;;10.50;88.10;;;;;;5134343;28;19922;-69
2023/03/21 08:47:07;;;;;;;;;;;10.50;88.10;;;;;;5115141;28;19916;-69
2023/03/21 08:49:33;;;;;;;;;;;10.60;88.10;;;;;;5134130;28;19915;-69
2023/03/21 08:51:59;;;;;;;;;;;10.60;88.00;;;;;;5134273;28;20384;-69
2023/03/21 08:54:24;;;;;;;;;;;10.60;87.90;;;;;;5134053;28;20022;-69
2023/03/21 08:56:50;;;;;;;;;;;10.60;87.90;;;;;;5133979;28;20388;-69
2023/03/21 08:59:16;;;;;;;;;;;10.70;87.90;;;;;;5134080;28;19919;-69
2023/03/21 09:01:41;;;;;;;;;;;10.70;87.90;;;;;;5134353;28;19915;-69
2023/03/21 09:04:09;;;;;;;;;;;10.70;87.90;;;;;;5134013;28;19915;-69
2023/03/21 09:06:35;;;;;;;;;;;10.70;87.90;;;;;;5134145;28;19922;-69
2023/03/21 09:09:01;;;;;;;;;;;10.80;88.00;;;;;;5134326;28;20407;-69
2023/03/21 09:11:27;;;;;;;;;;;10.80;87.90;;;;;;5133977;28;19964;-69
2023/03/21 09:13:54;;;;;;;;;;;10.80;87.90;;;;;;5133864;28;20006;-69
2023/03/21 09:16:19;;;;;;;;;;;10.80;87.90;;;;;;5134486;28;20034;-69
2023/03/21 09:18:48;;;;;;;;;;;10.90;87.90;;;;;;5133914;28;19951;-69
2023/03/21 09:21:14;;;;;;;;;;;10.90;87.80;;;;;;5115149;28;19915;-69
2023/03/21 09:23:40;;;;;;;;;;;10.90;87.80;;;;;;5133679;28;20055;-69
2023/03/21 09:26:07;;;;;;;;;;;10.90;87.80;;;;;;5133705;28;19994;-69
2023/03/21 09:28:33;;;;;;;;;;;11.00;87.90;;;;;;5132952;27;19963;-69
2023/03/21 09:31:01;;;;;;;;;;;11.00;87.70;;;;;;5133529;28;20049;-69
2023/03/21 09:33:28;;;;;;;;;;;11.10;87.80;;;;;;5133478;28;19916;-69
2023/03/21 09:35:54;;;;;;;;;;;11.10;87.80;;;;;;5113728;28;20018;-68
2023/03/21 09:38:20;;;;;;;;;;;11.20;87.70;;;;;;5133509;28;19951;-68
2023/03/21 09:40:59;;;;;;;;;;;11.20;87.70;;;;;;5133366;28;19923;-69
2023/03/21 09:43:39;;;;;;;;;;;11.20;87.60;;;;;;5133450;28;19915;-69
2023/03/21 09:46:12;;;;;;;;;;;11.30;87.70;;;;;;5133375;28;20059;-69
2023/03/21 09:48:45;;;;;;;;;;;11.20;87.60;;;;;;5133585;28;19923;-69
2023/03/21 09:51:14;;;;;;;;;;;11.20;87.60;;;;;;5133346;28;19916;-69
2023/03/21 09:53:41;;;;;;;;;;;11.30;87.80;;;;;;5129538;28;19915;-68
2023/03/21 09:56:11;;;;;;;;;;;11.30;87.80;;;;;;5133223;28;19926;-69
2023/03/21 09:58:45;;;;;;;;;;;11.30;87.90;;;;;;5133333;28;19969;-69
2023/03/21 10:01:21;;;;;;;;;;;11.30;87.80;;;;;;5114883;28;20302;-69
2023/03/21 10:03:48;;;;;;;;;;;11.40;87.80;;;;;;5133253;28;19954;-69
2023/03/21 10:06:15;;;;;;;;;;;11.40;87.80;;;;;;5133191;28;19922;-69
2023/03/21 10:08:44;;;;;;;;;;;11.40;87.80;;;;;;5133137;28;19915;-69
2023/03/21 10:11:20;;;;;;;;;;;11.40;87.80;;;;;;5133076;28;19923;-69
2023/03/21 10:13:50;;;;;;;;;;;11.50;87.80;;;;;;5133110;28;19915;-69
2023/03/21 10:16:19;;;;;;;;;;;11.60;87.70;;;;;;5133043;28;19919;-69
2023/03/21 10:18:46;;;;;;;;;;;11.70;87.50;;;;;;5133049;28;20307;-69
2023/03/21 10:21:18;;;;;;;;;;;11.80;87.50;;;;;;5114562;28;20114;-69
2023/03/21 10:23:44;;;;;;;;;;;11.90;87.30;;;;;;5132935;28;20368;-69
2023/03/21 10:26:10;;;;;;;;;;;12.00;87.10;;;;;;5133377;28;19923;-69
2023/03/21 10:28:36;;;;;;;;;;;12.10;87.00;;;;;;5132964;28;19923;-68
2023/03/21 10:31:06;;;;;;;;;;;12.10;86.90;;;;;;5132698;28;19923;-69
2023/03/21 10:33:34;;;;;;;;;;;12.20;86.90;;;;;;5132687;28;20346;-69
2023/03/21 10:36:04;;;;;;;;;;;12.20;86.80;;;;;;5132500;28;20425;-69
2023/03/21 10:38:30;;;;;;;;;;;12.20;86.80;;;;;;5132747;28;20022;-69
2023/03/21 10:40:55;;;;;;;;;;;12.20;86.80;;;;;;5133262;27;20326;-68
2023/03/21 10:43:30;;;;;;;;;;;12.30;86.80;;;;;;5116313;28;19919;-69
2023/03/21 10:45:55;;;;;;;;;;;12.30;87.20;;;;;;5136252;28;20326;-69
2023/03/21 10:48:21;;;;;;;;;;;12.30;86.70;;;;;;5136214;28;19915;-68
2023/03/21 10:50:50;;;;;;;;;;;12.40;86.60;;;;;;5117926;28;20452;-69
2023/03/21 10:53:20;;;;;;;;;;;12.30;86.70;;;;;;5117593;28;20352;-69
2023/03/21 10:55:47;;;;;;;;;;;12.40;86.80;;;;;;5117896;28;19928;-69
2023/03/21 10:58:17;;;;;;;;;;;12.40;86.80;;;;;;5136035;28;19923;-69
2023/03/21 11:00:44;;;;;;;;;;;12.40;86.80;;;;;;5135943;28;19916;-69
2023/03/21 11:03:20;;;;;;;;;;;12.50;86.80;;;;;;5135986;28;20365;-69
2023/03/21 11:05:46;;;;;;;;;;;12.60;86.70;;;;;;5134090;28;19937;-69
2023/03/21 11:08:13;;;;;;;;;;;12.70;86.60;;;;;;5135980;28;19915;-69
2023/03/21 11:11:00;;;;;;;;;;;12.80;86.50;;;;;;5113899;28;20451;-69
2023/03/21 11:13:31;;;;;;;;;;;12.80;86.20;;;;;;5132150;28;19911;-69
2023/03/21 11:16:03;;;;;;;;;;;12.80;86.20;;;;;;5115694;28;19920;-69
2023/03/21 11:18:31;;;;;;;;;;;12.80;86.00;;;;;;5135607;28;20413;-69
2023/03/21 11:21:01;;;;;;;;;;;13.00;86.20;;;;;;5135602;28;19916;-69
2023/03/21 11:23:29;;;;;;;;;;;12.90;86.10;;;;;;5135615;28;19915;-69
2023/03/21 11:25:54;;;;;;;;;;;12.90;86.10;;;;;;5135550;28;20404;-69
2023/03/21 11:28:22;;;;;;;;;;;13.00;86.10;;;;;;5135616;28;19955;-69
2023/03/21 11:30:50;;;;;;;;;;;13.10;86.00;;;;;;5135621;28;20394;-69
2023/03/21 11:33:17;;;;;;;;;;;13.00;86.00;;;;;;5135456;28;20002;-69
2023/03/21 11:35:43;;;;;;;;;;;13.00;86.10;;;;;;5131447;28;20276;-70
2023/03/21 11:38:23;;;;;;;;;;;13.00;86.00;;;;;;5116548;28;19923;-68
2023/03/21 11:40:55;;;;;;;;;;;13.00;86.10;;;;;;5132766;28;19964;-68
2023/03/21 11:43:30;;;;;;;;;;;13.00;86.20;;;;;;5135231;28;19945;-69
2023/03/21 11:45:57;;;;;;;;;;;13.00;86.20;;;;;;5134961;28;20286;-68
2023/03/21 11:48:22;;;;;;;;;;;13.00;86.10;;;;;;5135404;28;20010;-69
2023/03/21 11:50:49;;;;;;;;;;;13.00;85.90;;;;;;5135335;28;19976;-69
2023/03/21 11:53:19;;;;;;;;;;;13.20;85.80;;;;;;5135029;27;19919;-69
2023/03/21 11:55:56;;;;;;;;;;;13.20;85.80;;;;;;5116807;28;19962;-70
2023/03/21 11:58:30;;;;;;;;;;;13.30;85.70;;;;;;5132463;28;19915;-70
2023/03/21 12:01:11;;;;;;;;;;;13.30;85.50;;;;;;5116606;28;20288;-69
2023/03/21 12:03:45;;;;;;;;;;;13.30;85.30;;;;;;5115064;28;19915;-69
2023/03/21 12:06:18;;;;;;;;;;;13.40;85.40;;;;;;5115639;28;19916;-70
2023/03/21 12:09:00;;;;;;;;;;;13.30;85.40;;;;;;5135068;28;19980;-70
2023/03/21 12:11:30;;;;;;;;;;;13.30;85.50;;;;;;5134957;28;19960;-70
2023/03/21 12:14:10;;;;;;;;;;;13.40;86.00;;;;;;5134816;28;19920;-70
2023/03/21 12:16:46;;;;;;;;;;;13.40;85.30;;;;;;5134724;28;20380;-69
2023/03/21 12:19:32;;;;;;;;;;;13.50;85.30;;;;;;5115959;28;20329;-69
2023/03/21 12:22:11;;;;;;;;;;;13.50;85.20;;;;;;5119504;28;20006;-69
2023/03/21 12:24:51;;;;;;;;;;;13.40;85.00;;;;;;5130879;28;19988;-69
2023/03/21 12:27:22;;;;;;;;;;;13.50;85.10;;;;;;5133528;28;20413;-69
2023/03/21 12:29:58;;;;;;;;;;;13.50;85.00;;;;;;5134574;28;19938;-69
2023/03/21 12:32:28;;;;;;;;;;;13.40;84.90;;;;;;5135005;28;19954;-69
2023/03/21 12:35:00;;;;;;;;;;;13.30;85.10;;;;;;5116071;28;20002;-69
2023/03/21 12:37:40;;;;;;;;;;;13.40;85.20;;;;;;5134355;28;19926;-69
2023/03/21 12:40:16;;;;;;;;;;;13.50;85.30;;;;;;5134213;28;20403;-69
2023/03/21 12:42:47;;;;;;;;;;;13.50;85.10;;;;;;5134818;28;20429;-70
2023/03/21 12:45:23;;;;;;;;;;;13.40;85.00;;;;;;5134316;28;19922;-69
2023/03/21 12:48:03;;;;;;;;;;;13.40;85.10;;;;;;5134156;28;20429;-69
2023/03/21 12:50:36;;;;;;;;;;;13.40;85.20;;;;;;5134295;28;20365;-70
2023/03/21 12:53:09;;;;;;;;;;;13.40;85.30;;;;;;5134141;28;19960;-69
2023/03/21 12:55:35;;;;;;;;;;;13.40;85.30;;;;;;5134149;28;20057;-70
2023/03/21 12:58:15;;;;;;;;;;;13.40;85.20;;;;;;5115836;28;19985;-69
2023/03/21 13:00:43;;;;;;;;;;;13.50;85.00;;;;;;5134036;28;20368;-69
2023/03/21 13:03:11;;;;;;;;;;;13.50;85.00;;;;;;5133627;27;20402;-69
2023/03/21 13:05:43;;;;;;;;;;;13.60;85.00;;;;;;5133552;28;20359;-69
2023/03/21 13:08:24;;;;;;;;;;;13.60;84.80;;;;;;5134069;28;19930;-69
2023/03/21 13:10:49;;;;;;;;;;;13.70;84.70;;;;;;5133877;28;19923;-69
2023/03/21 13:13:35;;;;;;;;;;;13.80;84.40;;;;;;5134019;28;19916;-69
2023/03/21 13:16:06;;;;;;;;;;;13.80;84.30;;;;;;5116667;28;19951;-69
2023/03/21 13:18:39;;;;;;;;;;;13.80;84.10;;;;;;5130458;28;19942;-69
2023/03/21 13:21:11;;;;;;;;;;;13.80;84.00;;;;;;5130765;28;20010;-69
2023/03/21 13:23:38;;;;;;;;;;;13.80;83.90;;;;;;5131574;28;19939;-68
2023/03/21 13:26:07;;;;;;;;;;;13.90;83.90;;;;;;5133833;28;19964;-69
2023/03/21 13:28:34;;;;;;;;;;;13.90;83.70;;;;;;5133813;28;19922;-69
2023/03/21 13:31:17;;;;;;;;;;;13.90;83.50;;;;;;5133729;28;19930;-69
2023/03/21 13:33:45;;;;;;;;;;;14.10;83.50;;;;;;5114000;28;20334;-69
2023/03/21 13:36:11;;;;;;;;;;;14.00;83.30;;;;;;5133515;28;19923;-69
2023/03/21 13:38:40;;;;;;;;;;;14.10;83.20;;;;;;5133660;28;19915;-69
2023/03/21 13:41:07;;;;;;;;;;;14.20;83.10;;;;;;5133597;28;19923;-69
2023/03/21 13:43:34;;;;;;;;;;;14.20;83.00;;;;;;5133525;28;19915;-69
2023/03/21 13:46:17;;;;;;;;;;;14.40;82.90;;;;;;5133320;28;19923;-69
2023/03/21 13:48:52;;;;;;;;;;;14.60;82.50;;;;;;5130751;28;19968;-69
2023/03/21 13:51:36;;;;;;;;;;;14.70;82.70;;;;;;5133198;28;20300;-69
2023/03/21 13:54:19;;;;;;;;;;;14.80;81.50;;;;;;5133177;28;20330;-70
2023/03/21 13:56:49;;;;;;;;;;;14.90;81.30;;;;;;5133250;28;19926;-70
2023/03/21 13:59:34;;;;;;;;;;;15.00;81.10;;;;;;5133140;28;19916;-69
2023/03/21 14:02:02;;;;;;;;;;;15.00;80.60;;;;;;5132923;28;19923;-69
2023/03/21 14:04:30;;;;;;;;;;;15.00;80.40;;;;;;5133231;28;20384;-69
2023/03/21 14:07:01;;;;;;;;;;;14.90;80.60;;;;;;5114787;28;19926;-70
2023/03/21 14:09:38;;;;;;;;;;;14.90;80.80;;;;;;5133159;28;20002;-69
2023/03/21 14:12:06;;;;;;;;;;;14.80;80.90;;;;;;5133117;28;20002;-69
2023/03/21 14:14:36;;;;;;;;;;;14.90;80.90;;;;;;5133086;27;20376;-69
2023/03/21 14:17:09;;;;;;;;;;;15.00;80.80;;;;;;5136738;28;19979;-69
2023/03/21 14:19:35;;;;;;;;;;;14.90;80.70;;;;;;5136609;28;20407;-69
2023/03/21 14:22:00;;;;;;;;;;;14.80;80.70;;;;;;5136591;28;19915;-69
2023/03/21 14:24:26;;;;;;;;;;;14.70;80.90;;;;;;5136575;28;19916;-70
2023/03/21 14:26:53;;;;;;;;;;;14.70;81.00;;;;;;5136390;28;19916;-70
2023/03/21 14:29:22;;;;;;;;;;;14.80;81.00;;;;;;5116407;28;20277;-70
2023/03/21 14:31:47;;;;;;;;;;;14.80;80.70;;;;;;5136926;28;19922;-70